Time;durP1;ratioP1;P1;durP2;ratioP2;P2;SDS_P1;SDS_P2;PMS_P1;PMS_P2;Temp;Humidity;BMP_temperature;BMP_pressure;BME280_temperature;BME280_humidity;BME280_pressure;Samples;Min_cycle;Max_cycle;Signal;HPM_P1;HPM_P2
2022/09/13 00:02:08;;;;;;;5.35;2.20;;;;;;;;;;4805710;29;20511;-68
2022/09/13 00:04:34;;;;;;;4.10;2.25;;;;;;;;;;4803209;29;20031;-67
2022/09/13 00:07:01;;;;;;;5.43;2.13;;;;;;;;;;4805396;29;20034;-67
2022/09/13 00:09:27;;;;;;;4.38;2.33;;;;;;;;;;4805541;29;20035;-67
2022/09/13 00:11:53;;;;;;;3.53;2.53;;;;;;;;;;4805367;29;20122;-68
2022/09/13 00:14:20;;;;;;;6.15;2.22;;;;;;;;;;4805113;29;20090;-68
2022/09/13 00:16:46;;;;;;;3.05;2.28;;;;;;;;;;4805294;29;20041;-67
2022/09/13 00:19:12;;;;;;;5.10;2.25;;;;;;;;;;4804576;29;20051;-67
2022/09/13 00:21:38;;;;;;;6.57;2.30;;;;;;;;;;4805554;29;20035;-67
2022/09/13 00:24:05;;;;;;;4.60;2.30;;;;;;;;;;4805478;29;20035;-67
2022/09/13 00:26:31;;;;;;;9.65;2.83;;;;;;;;;;4805512;29;20019;-67
2022/09/13 00:28:58;;;;;;;3.25;2.40;;;;;;;;;;4767694;30;20034;-68
2022/09/13 00:31:26;;;;;;;4.28;2.50;;;;;;;;;;4769653;30;20038;-67
2022/09/13 00:33:52;;;;;;;5.80;2.35;;;;;;;;;;4769284;30;20038;-67
2022/09/13 00:36:19;;;;;;;7.55;2.70;;;;;;;;;;4769297;30;20387;-67
2022/09/13 00:38:45;;;;;;;7.22;2.25;;;;;;;;;;4769415;30;20027;-67
2022/09/13 00:41:13;;;;;;;4.88;2.67;;;;;;;;;;4769188;30;20039;-68
2022/09/13 00:43:45;;;;;;;5.72;2.70;;;;;;;;;;4769039;30;20032;-67
2022/09/13 00:46:13;;;;;;;4.28;2.55;;;;;;;;;;4769210;30;20030;-67
2022/09/13 00:48:40;;;;;;;5.93;2.75;;;;;;;;;;4769237;30;20031;-67
2022/09/13 00:51:07;;;;;;;7.85;3.30;;;;;;;;;;4769219;30;20024;-67
2022/09/13 00:53:35;;;;;;;3.90;2.60;;;;;;;;;;4769394;30;20036;-67
2022/09/13 00:56:04;;;;;;;6.60;2.92;;;;;;;;;;4769173;30;20505;-67
2022/09/13 00:58:34;;;;;;;7.38;2.60;;;;;;;;;;4768600;30;20032;-67
2022/09/13 01:01:01;;;;;;;10.43;2.45;;;;;;;;;;4769075;30;20555;-67
2022/09/13 01:03:29;;;;;;;3.88;2.58;;;;;;;;;;4769335;30;20023;-67
2022/09/13 01:06:06;;;;;;;5.28;3.15;;;;;;;;;;4794462;29;20031;-67
2022/09/13 01:08:32;;;;;;;4.00;2.70;;;;;;;;;;4807559;29;20072;-67
2022/09/13 01:11:00;;;;;;;5.13;2.70;;;;;;;;;;4808154;29;20030;-67
2022/09/13 01:13:28;;;;;;;4.15;2.75;;;;;;;;;;4808660;29;20053;-67
2022/09/13 01:15:54;;;;;;;5.18;2.97;;;;;;;;;;4808545;29;20481;-68
2022/09/13 01:18:21;;;;;;;4.85;2.97;;;;;;;;;;4808602;29;20054;-67
2022/09/13 01:21:06;;;;;;;5.72;2.90;;;;;;;;;;4808493;29;20038;-67
2022/09/13 01:23:41;;;;;;;7.22;2.70;;;;;;;;;;4808444;29;20035;-67
2022/09/13 01:26:17;;;;;;;5.20;2.92;;;;;;;;;;4808220;29;20026;-67
2022/09/13 01:28:47;;;;;;;6.80;2.85;;;;;;;;;;4808622;29;20043;-67
2022/09/13 01:31:28;;;;;;;4.90;2.53;;;;;;;;;;4808172;29;20031;-67
2022/09/13 01:33:54;;;;;;;5.80;2.85;;;;;;;;;;4808121;29;20404;-68
2022/09/13 01:36:39;;;;;;;5.13;2.90;;;;;;;;;;4808256;29;20033;-68
2022/09/13 01:39:07;;;;;;;4.82;2.80;;;;;;;;;;4808004;29;20031;-68
2022/09/13 01:41:52;;;;;;;6.82;3.20;;;;;;;;;;4808007;29;20343;-68
2022/09/13 01:44:28;;;;;;;10.98;3.08;;;;;;;;;;4807956;29;20497;-67
2022/09/13 01:47:11;;;;;;;4.82;2.85;;;;;;;;;;4807848;29;20412;-67
2022/09/13 01:49:55;;;;;;;6.15;3.03;;;;;;;;;;4808082;29;20035;-67
2022/09/13 01:52:30;;;;;;;6.15;2.90;;;;;;;;;;4807895;29;20142;-67
2022/09/13 01:55:02;;;;;;;4.65;2.80;;;;;;;;;;4807457;29;20038;-68
2022/09/13 01:57:33;;;;;;;5.35;2.63;;;;;;;;;;4808073;29;20023;-68
2022/09/13 02:00:03;;;;;;;3.45;2.95;;;;;;;;;;4807730;29;20043;-67
2022/09/13 02:02:52;;;;;;;5.47;2.67;;;;;;;;;;4807721;29;20427;-67
2022/09/13 02:05:45;;;;;;;4.93;2.85;;;;;;;;;;4806205;29;20038;-67
2022/09/13 02:08:14;;;;;;;5.70;3.03;;;;;;;;;;4807193;29;20556;-67
2022/09/13 02:10:50;;;;;;;4.13;2.53;;;;;;;;;;4806065;29;20027;-67
2022/09/13 02:13:18;;;;;;;10.07;2.75;;;;;;;;;;4807414;29;20453;-67
2022/09/13 02:15:47;;;;;;;6.65;2.60;;;;;;;;;;4807372;29;20492;-68
2022/09/13 02:18:17;;;;;;;5.30;2.50;;;;;;;;;;4805962;29;20042;-67
2022/09/13 02:20:45;;;;;;;6.77;2.90;;;;;;;;;;4807406;29;20094;-68
2022/09/13 02:23:21;;;;;;;3.58;2.90;;;;;;;;;;4807215;29;20075;-67
2022/09/13 02:25:48;;;;;;;4.70;2.78;;;;;;;;;;4807463;29;20038;-67
2022/09/13 02:28:17;;;;;;;3.78;2.42;;;;;;;;;;4807247;29;20023;-67
2022/09/13 02:30:46;;;;;;;4.50;3.05;;;;;;;;;;4807194;29;20071;-67
2022/09/13 02:33:15;;;;;;;3.85;2.70;;;;;;;;;;4806998;29;20394;-67
2022/09/13 02:35:44;;;;;;;5.13;3.00;;;;;;;;;;4807012;29;20083;-67
2022/09/13 02:38:16;;;;;;;5.80;2.90;;;;;;;;;;4806966;29;20090;-68
2022/09/13 02:40:48;;;;;;;3.55;3.00;;;;;;;;;;4807041;29;20047;-67
2022/09/13 02:43:24;;;;;;;6.78;2.70;;;;;;;;;;4806917;29;20340;-68
2022/09/13 02:45:53;;;;;;;5.20;2.65;;;;;;;;;;4807596;29;20057;-67
2022/09/13 02:48:23;;;;;;;4.72;2.65;;;;;;;;;;4806835;29;20035;-67
2022/09/13 02:51:06;;;;;;;4.40;2.70;;;;;;;;;;4806810;29;20047;-68
2022/09/13 02:53:46;;;;;;;3.10;2.80;;;;;;;;;;4806665;29;20489;-67
2022/09/13 02:56:36;;;;;;;4.60;2.72;;;;;;;;;;4806974;29;20026;-68
2022/09/13 02:59:10;;;;;;;4.05;2.80;;;;;;;;;;4804634;29;20107;-67
2022/09/13 03:01:38;;;;;;;4.30;2.60;;;;;;;;;;4804493;29;20038;-67
2022/09/13 03:04:04;;;;;;;4.80;2.90;;;;;;;;;;4804541;29;20049;-67
2022/09/13 03:06:30;;;;;;;3.47;2.58;;;;;;;;;;4788180;29;20053;-67
2022/09/13 03:08:59;;;;;;;6.70;2.75;;;;;;;;;;4804031;29;20035;-67
2022/09/13 03:11:35;;;;;;;6.72;2.67;;;;;;;;;;4804212;29;20548;-67
2022/09/13 03:14:10;;;;;;;6.20;3.00;;;;;;;;;;4804408;29;20037;-67
2022/09/13 03:16:37;;;;;;;4.70;2.78;;;;;;;;;;4804229;29;20047;-67
2022/09/13 03:19:23;;;;;;;4.13;2.65;;;;;;;;;;4804159;29;20408;-67
2022/09/13 03:22:05;;;;;;;6.60;2.88;;;;;;;;;;4803862;29;20046;-67
2022/09/13 03:24:55;;;;;;;7.53;2.92;;;;;;;;;;4804181;29;20029;-68
2022/09/13 03:27:38;;;;;;;4.90;2.92;;;;;;;;;;4804319;29;20050;-67
2022/09/13 03:30:06;;;;;;;7.63;3.00;;;;;;;;;;4803613;29;20047;-67
2022/09/13 03:32:50;;;;;;;4.00;2.60;;;;;;;;;;4804245;29;20039;-68
2022/09/13 03:35:26;;;;;;;3.83;2.90;;;;;;;;;;4804406;29;20046;-68
2022/09/13 03:38:01;;;;;;;5.22;3.17;;;;;;;;;;4805581;29;20031;-68
2022/09/13 03:40:39;;;;;;;5.50;2.95;;;;;;;;;;4805866;29;20039;-67
2022/09/13 03:43:06;;;;;;;5.43;2.90;;;;;;;;;;4805968;29;20034;-67
2022/09/13 03:45:35;;;;;;;7.05;2.72;;;;;;;;;;4806014;29;20084;-68
2022/09/13 03:48:02;;;;;;;7.97;3.05;;;;;;;;;;4805844;29;20041;-67
2022/09/13 03:50:29;;;;;;;6.05;2.60;;;;;;;;;;4805557;29;20039;-67
2022/09/13 03:53:00;;;;;;;4.60;3.08;;;;;;;;;;4805708;29;20396;-68
2022/09/13 03:55:27;;;;;;;6.63;2.90;;;;;;;;;;4805843;29;20037;-67
2022/09/13 03:57:53;;;;;;;4.78;2.95;;;;;;;;;;4804516;29;20035;-67
2022/09/13 04:00:20;;;;;;;7.03;3.15;;;;;;;;;;4805773;29;20043;-67
2022/09/13 04:02:46;;;;;;;5.85;2.80;;;;;;;;;;4805710;29;20023;-67
2022/09/13 04:05:13;;;;;;;7.25;2.70;;;;;;;;;;4804118;29;20042;-67
2022/09/13 04:07:39;;;;;;;6.07;3.13;;;;;;;;;;4805468;29;20066;-67
2022/09/13 04:10:06;;;;;;;5.85;2.95;;;;;;;;;;4805659;29;20041;-67
2022/09/13 04:12:32;;;;;;;5.15;3.00;;;;;;;;;;4805278;29;20058;-67
2022/09/13 04:14:59;;;;;;;3.58;2.50;;;;;;;;;;4805491;29;20087;-67
2022/09/13 04:17:25;;;;;;;8.30;2.63;;;;;;;;;;4805460;29;20519;-67
2022/09/13 04:19:51;;;;;;;5.60;2.53;;;;;;;;;;4804853;29;20042;-67
2022/09/13 04:22:17;;;;;;;4.50;2.80;;;;;;;;;;4805493;29;20030;-68
2022/09/13 04:24:44;;;;;;;5.68;3.05;;;;;;;;;;4805416;29;20042;-68
2022/09/13 04:27:11;;;;;;;5.85;2.60;;;;;;;;;;4805168;29;20027;-67
2022/09/13 04:29:37;;;;;;;5.80;2.65;;;;;;;;;;4805397;29;20030;-67
2022/09/13 04:32:03;;;;;;;4.88;2.55;;;;;;;;;;4805409;29;20393;-67
2022/09/13 04:34:30;;;;;;;3.35;2.28;;;;;;;;;;4804881;29;20033;-67
2022/09/13 04:36:56;;;;;;;4.20;2.60;;;;;;;;;;4805415;29;20022;-67
2022/09/13 04:39:22;;;;;;;5.05;2.72;;;;;;;;;;4805355;29;20507;-67
2022/09/13 04:41:50;;;;;;;5.55;2.55;;;;;;;;;;4804406;29;20037;-67
2022/09/13 04:44:17;;;;;;;3.55;2.88;;;;;;;;;;4803879;29;20046;-70
2022/09/13 04:46:47;;;;;;;4.53;2.40;;;;;;;;;;4805114;29;20031;-68
2022/09/13 04:49:13;;;;;;;10.27;2.70;;;;;;;;;;4804983;29;20071;-68
2022/09/13 04:51:40;;;;;;;4.25;2.45;;;;;;;;;;4805257;29;20045;-68
2022/09/13 04:54:06;;;;;;;5.40;2.50;;;;;;;;;;4805063;29;20023;-68
2022/09/13 04:56:32;;;;;;;4.38;2.20;;;;;;;;;;4805042;29;20031;-68
2022/09/13 04:58:59;;;;;;;4.70;2.47;;;;;;;;;;4804766;29;20027;-68
2022/09/13 05:01:25;;;;;;;6.20;2.53;;;;;;;;;;4805049;29;20042;-68
2022/09/13 05:03:52;;;;;;;4.63;2.45;;;;;;;;;;4804900;29;20045;-68
2022/09/13 05:06:19;;;;;;;5.25;2.47;;;;;;;;;;4803866;29;20027;-68
2022/09/13 05:08:51;;;;;;;7.00;2.28;;;;;;;;;;4805139;29;20041;-67
2022/09/13 05:11:18;;;;;;;8.88;2.53;;;;;;;;;;4804669;29;20031;-70
2022/09/13 05:13:44;;;;;;;4.18;2.40;;;;;;;;;;4805122;29;20038;-67
2022/09/13 05:16:10;;;;;;;6.00;2.20;;;;;;;;;;4804900;29;20478;-67
2022/09/13 05:18:37;;;;;;;4.85;2.13;;;;;;;;;;4804776;29;20027;-67
2022/09/13 05:21:04;;;;;;;4.25;2.30;;;;;;;;;;4804609;29;20039;-67
2022/09/13 05:23:31;;;;;;;8.07;2.50;;;;;;;;;;4804753;29;20027;-67
2022/09/13 05:26:01;;;;;;;4.00;2.47;;;;;;;;;;4804896;29;20360;-67
2022/09/13 05:28:33;;;;;;;5.57;2.10;;;;;;;;;;4804658;29;20034;-67
2022/09/13 05:31:03;;;;;;;4.38;2.22;;;;;;;;;;4804551;29;20634;-67
2022/09/13 05:33:34;;;;;;;4.65;2.30;;;;;;;;;;4804281;29;20033;-67
2022/09/13 05:36:01;;;;;;;8.50;2.50;;;;;;;;;;4804597;29;20035;-67
2022/09/13 05:38:27;;;;;;;5.85;2.17;;;;;;;;;;4804792;29;20039;-67
2022/09/13 05:40:58;;;;;;;3.90;2.47;;;;;;;;;;4804501;29;20058;-67
2022/09/13 05:43:25;;;;;;;5.97;1.95;;;;;;;;;;4804618;29;20038;-69
2022/09/13 05:45:52;;;;;;;5.10;2.15;;;;;;;;;;4804614;29;20063;-70
2022/09/13 05:48:18;;;;;;;3.92;2.25;;;;;;;;;;4804414;29;20083;-67
2022/09/13 05:50:44;;;;;;;3.50;2.20;;;;;;;;;;4803400;29;20023;-67
2022/09/13 05:53:10;;;;;;;6.03;2.20;;;;;;;;;;4805129;29;20043;-67
2022/09/13 05:55:37;;;;;;;10.50;2.60;;;;;;;;;;4807742;29;20037;-67
2022/09/13 05:58:03;;;;;;;3.95;2.20;;;;;;;;;;4807664;29;20027;-67
2022/09/13 06:00:31;;;;;;;6.70;2.33;;;;;;;;;;4807625;29;20043;-67
2022/09/13 06:02:57;;;;;;;6.80;2.20;;;;;;;;;;4807668;29;20061;-68
2022/09/13 06:05:24;;;;;;;3.63;2.03;;;;;;;;;;4805411;29;20041;-68
2022/09/13 06:07:50;;;;;;;6.25;2.20;;;;;;;;;;4807323;29;20030;-68
2022/09/13 06:10:17;;;;;;;6.43;2.05;;;;;;;;;;4807458;29;20033;-67
2022/09/13 06:12:43;;;;;;;3.72;2.30;;;;;;;;;;4807506;29;20054;-68
2022/09/13 06:15:10;;;;;;;3.25;1.70;;;;;;;;;;4787724;29;20041;-67
2022/09/13 06:17:36;;;;;;;4.18;1.90;;;;;;;;;;4794435;29;20031;-68
2022/09/13 06:20:03;;;;;;;2.70;1.80;;;;;;;;;;4787926;30;20059;-68
2022/09/13 06:22:32;;;;;;;2.90;1.80;;;;;;;;;;4788885;30;20032;-69
2022/09/13 06:25:01;;;;;;;3.20;2.00;;;;;;;;;;4787290;30;20029;-69
2022/09/13 06:27:30;;;;;;;5.47;2.03;;;;;;;;;;4787387;29;20047;-68
2022/09/13 06:29:56;;;;;;;4.05;1.90;;;;;;;;;;4800604;29;20485;-68
2022/09/13 06:32:22;;;;;;;5.60;1.80;;;;;;;;;;4796294;29;20030;-69
2022/09/13 06:34:49;;;;;;;8.80;1.88;;;;;;;;;;4787888;30;20042;-69
2022/09/13 06:37:15;;;;;;;4.28;1.80;;;;;;;;;;4791222;29;20043;-68
2022/09/13 06:39:42;;;;;;;5.35;2.10;;;;;;;;;;4799862;29;20045;-69
2022/09/13 06:42:08;;;;;;;5.97;2.15;;;;;;;;;;4805086;29;20026;-68
2022/09/13 06:44:34;;;;;;;7.57;2.03;;;;;;;;;;4806475;29;20038;-69
2022/09/13 06:47:01;;;;;;;3.35;1.77;;;;;;;;;;4788121;30;20035;-69
2022/09/13 06:49:28;;;;;;;8.63;2.30;;;;;;;;;;4788536;29;20035;-68
2022/09/13 06:51:54;;;;;;;6.47;1.95;;;;;;;;;;4787351;29;20409;-69
2022/09/13 06:54:20;;;;;;;6.75;1.77;;;;;;;;;;4788403;30;20084;-69
2022/09/13 06:56:47;;;;;;;4.80;1.90;;;;;;;;;;4797653;29;20063;-68
2022/09/13 06:59:13;;;;;;;9.40;2.65;;;;;;;;;;4805812;29;20375;-68
2022/09/13 07:01:42;;;;;;;5.00;2.25;;;;;;;;;;4788939;29;20513;-69
2022/09/13 07:04:12;;;;;;;7.18;2.35;;;;;;;;;;4801736;29;20037;-69
2022/09/13 07:06:40;;;;;;;6.65;1.95;;;;;;;;;;4796773;29;20034;-69
2022/09/13 07:09:07;;;;;;;6.00;2.00;;;;;;;;;;4785280;29;20379;-69
2022/09/13 07:11:35;;;;;;;3.17;2.10;;;;;;;;;;4785994;29;20050;-70
2022/09/13 07:14:02;;;;;;;13.48;2.72;;;;;;;;;;4785150;30;20399;-69
2022/09/13 07:16:33;;;;;;;9.38;2.30;;;;;;;;;;4785914;29;20046;-69
2022/09/13 07:19:00;;;;;;;11.27;2.13;;;;;;;;;;4786970;29;20035;-69
2022/09/13 07:21:27;;;;;;;18.85;2.60;;;;;;;;;;4785556;30;20039;-69
2022/09/13 07:23:54;;;;;;;22.25;2.78;;;;;;;;;;4792317;29;20027;-69
2022/09/13 07:26:21;;;;;;;19.00;2.70;;;;;;;;;;4786452;30;20051;-69
2022/09/13 07:28:49;;;;;;;8.80;2.72;;;;;;;;;;4786096;30;20031;-69
2022/09/13 07:31:21;;;;;;;9.23;2.28;;;;;;;;;;4785332;29;20565;-70
2022/09/13 07:33:48;;;;;;;15.20;2.45;;;;;;;;;;4784692;30;20442;-69
2022/09/13 07:36:14;;;;;;;6.28;1.92;;;;;;;;;;4786383;30;20023;-69
2022/09/13 07:38:45;;;;;;;6.28;1.90;;;;;;;;;;4785973;30;20024;-69
2022/09/13 07:41:15;;;;;;;6.72;2.17;;;;;;;;;;4786239;30;20043;-69
2022/09/13 07:43:42;;;;;;;8.88;1.90;;;;;;;;;;4785107;30;20400;-70
2022/09/13 07:46:09;;;;;;;2.78;1.60;;;;;;;;;;4785796;30;20051;-70
2022/09/13 07:48:37;;;;;;;5.55;1.65;;;;;;;;;;4785878;29;20035;-68
2022/09/13 07:51:03;;;;;;;4.55;1.70;;;;;;;;;;4785441;29;20473;-70
2022/09/13 07:53:30;;;;;;;4.97;1.75;;;;;;;;;;4786912;29;20426;-69
2022/09/13 07:56:13;;;;;;;3.17;1.80;;;;;;;;;;4785164;30;20039;-70
2022/09/13 07:58:40;;;;;;;4.55;1.60;;;;;;;;;;4785458;30;20765;-69
2022/09/13 08:01:11;;;;;;;4.80;1.80;;;;;;;;;;4785223;30;20047;-69
2022/09/13 08:03:38;;;;;;;3.78;1.70;;;;;;;;;;4784534;30;20042;-69
2022/09/13 08:06:05;;;;;;;4.32;2.15;;;;;;;;;;4798832;29;20049;-69
2022/09/13 08:08:32;;;;;;;5.63;1.75;;;;;;;;;;4791162;29;20039;-68
2022/09/13 08:10:59;;;;;;;4.88;1.60;;;;;;;;;;4785555;30;20020;-67
2022/09/13 08:13:26;;;;;;;4.43;1.70;;;;;;;;;;4784768;30;20119;-69
2022/09/13 08:15:52;;;;;;;6.18;2.05;;;;;;;;;;4785482;30;20448;-69
2022/09/13 08:18:19;;;;;;;4.75;1.50;;;;;;;;;;4785323;30;20031;-69
2022/09/13 08:20:45;;;;;;;3.78;1.40;;;;;;;;;;4785363;30;20045;-69
2022/09/13 08:23:12;;;;;;;2.85;1.80;;;;;;;;;;4784130;29;20031;-70
2022/09/13 08:25:38;;;;;;;12.73;2.03;;;;;;;;;;4784880;30;20027;-69
2022/09/13 08:28:06;;;;;;;4.28;1.60;;;;;;;;;;4785193;30;20045;-69
2022/09/13 08:30:34;;;;;;;6.82;1.85;;;;;;;;;;4784627;29;20517;-69
2022/09/13 08:33:01;;;;;;;4.85;1.70;;;;;;;;;;4784929;30;20400;-69
2022/09/13 08:35:28;;;;;;;8.75;2.10;;;;;;;;;;4785116;30;20037;-69
2022/09/13 08:37:55;;;;;;;7.28;1.60;;;;;;;;;;4784815;29;20031;-70
2022/09/13 08:40:23;;;;;;;9.80;2.03;;;;;;;;;;4784106;30;20043;-69
2022/09/13 08:43:05;;;;;;;6.03;1.80;;;;;;;;;;4784982;30;20023;-69
2022/09/13 08:45:32;;;;;;;7.07;1.75;;;;;;;;;;4785277;30;20092;-69
2022/09/13 08:48:01;;;;;;;5.05;1.88;;;;;;;;;;4785180;30;20096;-70
2022/09/13 08:50:29;;;;;;;11.35;1.70;;;;;;;;;;4784837;30;20027;-69
2022/09/13 08:53:15;;;;;;;7.25;1.90;;;;;;;;;;4785301;29;20027;-69
2022/09/13 08:55:41;;;;;;;4.20;1.55;;;;;;;;;;4792383;29;20027;-69
2022/09/13 08:58:07;;;;;;;8.25;1.67;;;;;;;;;;4802713;29;20408;-69
2022/09/13 09:00:42;;;;;;;3.65;1.55;;;;;;;;;;4787114;29;20039;-69
2022/09/13 09:03:33;;;;;;;6.95;1.60;;;;;;;;;;4785440;29;20035;-69
2022/09/13 09:06:00;;;;;;;;;;;;;;;;;;4785344;30;20409;-69
2022/09/13 09:08:33;;;;;;;5.15;1.98;;;;;;;;;;4785447;30;19920;-69
2022/09/13 09:11:02;;;;;;;5.28;1.40;;;;;;;;;;4784785;30;20508;-68
2022/09/13 09:13:34;;;;;;;6.57;1.90;;;;;;;;;;4785228;30;20053;-69
2022/09/13 09:16:05;;;;;;;3.78;1.30;;;;;;;;;;4784628;30;20037;-69
2022/09/13 09:18:35;;;;;;;4.88;1.35;;;;;;;;;;4784433;30;20038;-69
2022/09/13 09:21:02;;;;;;;7.32;1.50;;;;;;;;;;4782921;30;20039;-69
2022/09/13 09:23:37;;;;;;;6.65;2.00;;;;;;;;;;4784986;30;20525;-68
2022/09/13 09:26:15;;;;;;;11.13;1.50;;;;;;;;;;4782039;30;20405;-69
2022/09/13 09:28:43;;;;;;;8.75;1.63;;;;;;;;;;4787112;30;20674;-70
2022/09/13 09:31:36;;;;;;;7.75;1.88;;;;;;;;;;4788245;30;20034;-70
2022/09/13 09:34:08;;;;;;;7.53;1.58;;;;;;;;;;4768230;30;20050;-71
2022/09/13 09:36:34;;;;;;;7.78;1.63;;;;;;;;;;4768224;30;20056;-71
2022/09/13 09:39:03;;;;;;;6.00;1.35;;;;;;;;;;4768170;30;20040;-71
2022/09/13 09:41:33;;;;;;;5.28;1.35;;;;;;;;;;4767769;30;20047;-71
2022/09/13 09:44:13;;;;;;;5.50;1.50;;;;;;;;;;4767450;30;20028;-71
2022/09/13 09:46:40;;;;;;;3.03;1.25;;;;;;;;;;4767848;30;20038;-71
2022/09/13 09:52:05;;;;;;;6.70;1.98;;;;;;;;;;4735415;30;20044;-73
2022/09/13 09:54:33;;;;;;;6.07;1.77;;;;;;;;;;4721240;30;20163;-72
2022/09/13 09:57:00;;;;;;;6.47;1.50;;;;;;;;;;4732189;30;20083;-72
2022/09/13 09:59:30;;;;;;;8.35;1.60;;;;;;;;;;4731432;30;20414;-72
2022/09/13 10:01:56;;;;;;;6.05;1.60;;;;;;;;;;4733177;30;20036;-71
2022/09/13 10:04:23;;;;;;;5.50;1.52;;;;;;;;;;4734176;30;20043;-69
2022/09/13 10:06:50;;;;;;;7.60;1.75;;;;;;;;;;4730801;30;20047;-67
2022/09/13 10:09:18;;;;;;;6.60;1.67;;;;;;;;;;4731041;30;20065;-67
2022/09/13 10:11:52;;;;;;;5.10;1.58;;;;;;;;;;4747061;30;20036;-68
2022/09/13 10:14:36;;;;;;;5.68;1.60;;;;;;;;;;4749674;30;20044;-69
2022/09/13 10:17:15;;;;;;;9.48;1.67;;;;;;;;;;4748890;30;20066;-69
2022/09/13 10:19:51;;;;;;;9.23;1.83;;;;;;;;;;4749378;30;20051;-68
2022/09/13 10:22:18;;;;;;;5.45;1.67;;;;;;;;;;4748950;30;20456;-69
2022/09/13 10:24:44;;;;;;;8.65;1.60;;;;;;;;;;4749795;30;20240;-68
2022/09/13 10:27:25;;;;;;;5.90;1.70;;;;;;;;;;4748960;30;20020;-69
2022/09/13 10:29:55;;;;;;;7.28;1.50;;;;;;;;;;4781872;29;20709;-68
2022/09/13 10:32:22;;;;;;;5.82;1.65;;;;;;;;;;4789426;29;20043;-69
2022/09/13 10:34:49;;;;;;;6.63;1.70;;;;;;;;;;4787569;30;20038;-69
2022/09/13 10:37:21;;;;;;;6.68;1.83;;;;;;;;;;4786979;30;20041;-69
2022/09/13 10:40:08;;;;;;;8.23;1.80;;;;;;;;;;4786219;29;20045;-68
2022/09/13 10:42:35;;;;;;;5.57;1.67;;;;;;;;;;4787320;30;20833;-69
2022/09/13 10:45:06;;;;;;;5.45;1.63;;;;;;;;;;4800806;29;20420;-69
2022/09/13 10:47:43;;;;;;;5.90;1.80;;;;;;;;;;4805290;29;20041;-69
2022/09/13 10:50:20;;;;;;;5.75;1.20;;;;;;;;;;4804809;29;20035;-69
2022/09/13 10:52:54;;;;;;;8.85;1.92;;;;;;;;;;4804731;29;20041;-68
2022/09/13 10:55:49;;;;;;;3.03;1.42;;;;;;;;;;4805194;29;20039;-68
2022/09/13 10:58:17;;;;;;;6.15;1.58;;;;;;;;;;4808017;29;20046;-69
2022/09/13 11:01:02;;;;;;;5.72;1.67;;;;;;;;;;4805311;29;20041;-68
2022/09/13 11:03:31;;;;;;;6.05;1.85;;;;;;;;;;4805077;29;20027;-68
2022/09/13 11:06:01;;;;;;;7.33;1.80;;;;;;;;;;4788317;29;20097;-67
2022/09/13 11:08:27;;;;;;;6.22;1.77;;;;;;;;;;4785686;30;20051;-68
2022/09/13 11:11:13;;;;;;;6.13;1.73;;;;;;;;;;4786842;30;20027;-68
2022/09/13 11:13:48;;;;;;;10.82;1.65;;;;;;;;;;4786437;29;20143;-69
2022/09/13 11:16:29;;;;;;;10.85;1.58;;;;;;;;;;4786324;29;20039;-68
2022/09/13 11:18:59;;;;;;;5.53;1.65;;;;;;;;;;4786809;30;20024;-67
2022/09/13 11:21:31;;;;;;;9.40;1.95;;;;;;;;;;4785568;29;20416;-71
2022/09/13 11:23:57;;;;;;;10.05;1.65;;;;;;;;;;4788824;29;20031;-66
2022/09/13 11:26:36;;;;;;;12.48;1.90;;;;;;;;;;4785550;29;20039;-66
2022/09/13 11:29:19;;;;;;;9.57;1.85;;;;;;;;;;4768374;30;20516;-68
2022/09/13 11:31:46;;;;;;;5.13;1.63;;;;;;;;;;4778411;30;20393;-68
2022/09/13 11:34:15;;;;;;;4.07;1.00;;;;;;;;;;4787417;30;20047;-67
2022/09/13 11:36:58;;;;;;;7.47;1.45;;;;;;;;;;4787091;30;20032;-68
2022/09/13 11:39:31;;;;;;;6.70;1.73;;;;;;;;;;4785418;30;20039;-68
2022/09/13 11:42:16;;;;;;;7.45;1.70;;;;;;;;;;4785466;29;20039;-67
2022/09/13 11:44:45;;;;;;;5.38;1.67;;;;;;;;;;4786035;30;20046;-67
2022/09/13 11:47:32;;;;;;;8.57;1.85;;;;;;;;;;4781351;29;20036;-67
2022/09/13 11:50:11;;;;;;;4.95;1.70;;;;;;;;;;4799099;29;20110;-67
2022/09/13 11:52:40;;;;;;;9.70;1.98;;;;;;;;;;4801867;29;20054;-66
2022/09/13 11:55:18;;;;;;;15.77;2.03;;;;;;;;;;4784612;29;20500;-67
2022/09/13 11:57:47;;;;;;;10.98;1.67;;;;;;;;;;4792025;29;20031;-68
2022/09/13 12:00:14;;;;;;;12.27;1.80;;;;;;;;;;4795709;29;20132;-68
2022/09/13 12:02:42;;;;;;;13.40;2.13;;;;;;;;;;4788540;29;20038;-68
2022/09/13 12:05:08;;;;;;;7.50;2.33;;;;;;;;;;4801420;29;20055;-68
2022/09/13 12:07:58;;;;;;;9.48;1.83;;;;;;;;;;4801158;29;20528;-69
2022/09/13 12:10:28;;;;;;;9.90;1.92;;;;;;;;;;4753745;30;20468;-68
2022/09/13 12:12:56;;;;;;;4.18;1.67;;;;;;;;;;4751051;30;20546;-67
2022/09/13 12:15:29;;;;;;;5.35;1.67;;;;;;;;;;4748678;30;20056;-68
2022/09/13 12:18:02;;;;;;;12.57;2.33;;;;;;;;;;4748057;30;20089;-68
2022/09/13 12:20:36;;;;;;;9.02;2.33;;;;;;;;;;4748154;30;20040;-72
2022/09/13 12:23:04;;;;;;;8.65;2.10;;;;;;;;;;4747255;30;20040;-68
2022/09/13 12:25:56;;;;;;;6.60;1.50;;;;;;;;;;4747384;30;20039;-68
2022/09/13 12:28:26;;;;;;;9.75;1.60;;;;;;;;;;4745368;30;20062;-68
2022/09/13 12:30:58;;;;;;;9.30;1.88;;;;;;;;;;4748177;30;20032;-68
2022/09/13 12:33:25;;;;;;;10.68;2.47;;;;;;;;;;4733209;30;20040;-69
2022/09/13 12:36:00;;;;;;;8.77;1.90;;;;;;;;;;4748522;30;20054;-68
2022/09/13 12:38:35;;;;;;;10.35;2.20;;;;;;;;;;4748478;30;20445;-68
2022/09/13 12:41:01;;;;;;;8.40;1.95;;;;;;;;;;4747591;30;20064;-68
2022/09/13 12:43:46;;;;;;;8.63;2.15;;;;;;;;;;4747798;30;20042;-68
2022/09/13 12:46:39;;;;;;;8.60;2.00;;;;;;;;;;4747846;30;20399;-68
2022/09/13 12:49:20;;;;;;;9.02;1.95;;;;;;;;;;4794866;29;20043;-68
2022/09/13 12:51:47;;;;;;;8.40;2.08;;;;;;;;;;4770201;30;20035;-68
2022/09/13 12:54:14;;;;;;;7.25;2.20;;;;;;;;;;4783870;30;20050;-70
2022/09/13 12:56:44;;;;;;;8.98;2.10;;;;;;;;;;4799207;29;20069;-70
2022/09/13 12:59:19;;;;;;;14.68;2.20;;;;;;;;;;4789559;29;20072;-70
2022/09/13 13:01:48;;;;;;;7.65;1.73;;;;;;;;;;4782133;29;20079;-70
2022/09/13 13:04:16;;;;;;;9.75;2.08;;;;;;;;;;4787587;30;20031;-70
2022/09/13 13:06:56;;;;;;;9.10;2.17;;;;;;;;;;4786986;30;20080;-69
2022/09/13 13:09:22;;;;;;;5.95;1.90;;;;;;;;;;4787573;29;20381;-70
2022/09/13 13:11:50;;;;;;;11.57;2.20;;;;;;;;;;4787248;30;20059;-68
2022/09/13 13:14:35;;;;;;;8.23;2.13;;;;;;;;;;4796332;29;20572;-68
2022/09/13 13:17:20;;;;;;;11.13;2.00;;;;;;;;;;4786344;30;20042;-68
2022/09/13 13:19:47;;;;;;;13.90;2.40;;;;;;;;;;4772284;30;20043;-68
2022/09/13 13:22:32;;;;;;;8.82;1.83;;;;;;;;;;4787405;30;20404;-68
2022/09/13 13:24:58;;;;;;;10.38;2.10;;;;;;;;;;4791223;29;20030;-68
2022/09/13 13:27:37;;;;;;;12.23;2.22;;;;;;;;;;4807406;29;20400;-69
2022/09/13 13:30:21;;;;;;;13.85;1.75;;;;;;;;;;4807450;29;20037;-68
2022/09/13 13:33:08;;;;;;;5.85;1.95;;;;;;;;;;4771409;30;20046;-68
2022/09/13 13:35:35;;;;;;;11.10;2.00;;;;;;;;;;4779358;30;20037;-68
2022/09/13 13:38:30;;;;;;;10.50;1.90;;;;;;;;;;4788990;30;20032;-68
2022/09/13 13:41:26;;;;;;;8.60;1.80;;;;;;;;;;4788580;30;20053;-68
2022/09/13 13:43:53;;;;;;;11.45;1.98;;;;;;;;;;4770554;30;20049;-69
2022/09/13 13:46:22;;;;;;;12.25;2.33;;;;;;;;;;4770844;30;20028;-69
2022/09/13 13:48:48;;;;;;;13.77;2.50;;;;;;;;;;4771006;30;20035;-68
2022/09/13 13:51:14;;;;;;;12.40;1.92;;;;;;;;;;4782633;30;20042;-69
2022/09/13 13:54:07;;;;;;;15.88;2.03;;;;;;;;;;4788811;30;20031;-68
2022/09/13 13:56:44;;;;;;;12.80;1.90;;;;;;;;;;4803620;29;20047;-69
2022/09/13 13:59:17;;;;;;;12.15;2.35;;;;;;;;;;4806941;29;20035;-69
2022/09/13 14:01:46;;;;;;;13.60;2.20;;;;;;;;;;4790740;29;20404;-69
2022/09/13 14:04:31;;;;;;;11.50;2.00;;;;;;;;;;4787612;30;20489;-69
2022/09/13 14:07:05;;;;;;;11.48;1.88;;;;;;;;;;4788326;30;20047;-69
2022/09/13 14:09:51;;;;;;;5.88;1.42;;;;;;;;;;4792614;29;20379;-69
2022/09/13 14:12:28;;;;;;;12.02;1.98;;;;;;;;;;4789469;29;20055;-70
2022/09/13 14:14:56;;;;;;;13.57;2.10;;;;;;;;;;4787453;29;20035;-68
2022/09/13 14:17:42;;;;;;;10.65;2.10;;;;;;;;;;4797437;29;20493;-69
2022/09/13 14:20:10;;;;;;;11.63;2.28;;;;;;;;;;4803548;29;20057;-69
2022/09/13 14:22:36;;;;;;;10.80;2.08;;;;;;;;;;4788677;30;20035;-69
2022/09/13 14:25:35;;;;;;;7.00;1.80;;;;;;;;;;4788078;30;20080;-69
2022/09/13 14:28:01;;;;;;;11.95;2.42;;;;;;;;;;4770716;30;20048;-68
2022/09/13 14:30:28;;;;;;;10.68;1.52;;;;;;;;;;4784604;30;20039;-69
2022/09/13 14:32:56;;;;;;;9.82;2.30;;;;;;;;;;4785155;30;20029;-68
2022/09/13 14:35:25;;;;;;;14.93;2.42;;;;;;;;;;4784482;30;20035;-69
2022/09/13 14:37:51;;;;;;;12.15;2.38;;;;;;;;;;4785209;30;20042;-68
2022/09/13 14:40:20;;;;;;;6.47;2.20;;;;;;;;;;4785827;30;20046;-69
2022/09/13 14:42:47;;;;;;;6.15;2.00;;;;;;;;;;4785671;30;20035;-68
2022/09/13 14:45:15;;;;;;;10.13;2.35;;;;;;;;;;4785796;29;20441;-69
2022/09/13 14:47:52;;;;;;;10.18;2.28;;;;;;;;;;4784736;30;20035;-68
2022/09/13 14:50:20;;;;;;;13.50;2.53;;;;;;;;;;4782731;30;20043;-69
2022/09/13 14:52:52;;;;;;;5.90;2.10;;;;;;;;;;4785286;30;20035;-69
2022/09/13 14:55:21;;;;;;;7.05;1.90;;;;;;;;;;4784304;30;20023;-69
2022/09/13 14:57:50;;;;;;;6.35;1.70;;;;;;;;;;4784901;30;20436;-69
2022/09/13 15:00:18;;;;;;;11.02;1.90;;;;;;;;;;4784993;30;20126;-68
2022/09/13 15:02:48;;;;;;;7.30;2.08;;;;;;;;;;4785267;30;20052;-69
2022/09/13 15:05:16;;;;;;;8.35;1.95;;;;;;;;;;4793912;29;20061;-69
2022/09/13 15:07:42;;;;;;;10.27;2.10;;;;;;;;;;4804436;29;20045;-68